Time;durP1;ratioP1;P1;durP2;ratioP2;P2;SDS_P1;SDS_P2;PMS_P1;PMS_P2;Temp;Humidity;BMP_temperature;BMP_pressure;BME280_temperature;BME280_humidity;BME280_pressure;Samples;Min_cycle;Max_cycle;Signal;HPM_P1;HPM_P2
2022/04/29 00:00:39;;;;;;;13.40;7.63;;;5.20;99.90;;;;;;4993732;28;20037;-81
2022/04/29 00:03:08;;;;;;;11.40;7.25;;;5.20;99.90;;;;;;4988453;28;20022;-81
2022/04/29 00:05:35;;;;;;;10.63;7.57;;;5.20;99.90;;;;;;4990593;28;20489;-81
2022/04/29 00:08:05;;;;;;;10.93;7.78;;;5.30;99.90;;;;;;4989212;28;20034;-81
2022/04/29 00:10:32;;;;;;;9.93;6.50;;;5.20;99.90;;;;;;4989863;28;20030;-83
2022/04/29 00:12:59;;;;;;;11.52;7.57;;;5.10;99.90;;;;;;4977606;28;20485;-83
2022/04/29 00:15:26;;;;;;;12.75;7.22;;;5.00;99.90;;;;;;4990286;28;20455;-81
2022/04/29 00:17:51;;;;;;;11.57;7.57;;;5.00;99.90;;;;;;4987108;28;20030;-81
2022/04/29 00:20:17;;;;;;;11.40;7.50;;;4.90;99.90;;;;;;4986379;28;20030;-81
2022/04/29 00:22:44;;;;;;;12.05;7.50;;;4.90;99.90;;;;;;5004589;28;20065;-83
2022/04/29 00:25:10;;;;;;;15.00;8.05;;;4.90;99.90;;;;;;4989926;28;20026;-83
2022/04/29 00:27:37;;;;;;;12.65;7.95;;;4.70;99.90;;;;;;4984051;28;20437;-83
2022/04/29 00:30:07;;;;;;;16.02;7.93;;;4.80;99.90;;;;;;4989944;28;20509;-83
2022/04/29 00:32:33;;;;;;;12.55;9.32;;;4.80;99.90;;;;;;4993010;28;20035;-83
2022/04/29 00:34:59;;;;;;;13.27;7.63;;;4.90;99.90;;;;;;4990154;28;20504;-83
2022/04/29 00:37:25;;;;;;;34.05;9.00;;;4.80;99.90;;;;;;4989706;28;20716;-83
2022/04/29 00:39:51;;;;;;;13.60;9.02;;;4.70;99.90;;;;;;4993897;28;20034;-83
2022/04/29 00:42:23;;;;;;;12.95;7.93;;;4.80;99.90;;;;;;4964335;28;20105;-84
2022/04/29 00:44:49;;;;;;;13.32;8.75;;;4.70;99.90;;;;;;4987288;28;20078;-83
2022/04/29 00:47:20;;;;;;;19.95;9.93;;;4.60;99.90;;;;;;4974420;28;20259;-83
2022/04/29 00:49:47;;;;;;;12.70;7.93;;;4.70;99.90;;;;;;4982581;28;20026;-83
2022/04/29 00:52:19;;;;;;;11.40;7.57;;;4.60;99.90;;;;;;4981992;28;20094;-82
2022/04/29 00:54:57;;;;;;;13.18;8.55;;;4.60;99.90;;;;;;4981519;28;20067;-83
2022/04/29 00:57:28;;;;;;;14.40;8.07;;;4.60;99.90;;;;;;4987510;28;20033;-82
2022/04/29 01:00:09;;;;;;;13.60;8.98;;;4.50;99.90;;;;;;4990643;28;20308;-83
2022/04/29 01:02:39;;;;;;;12.73;8.18;;;4.50;99.90;;;;;;4962073;28;20109;-81
2022/04/29 01:05:07;;;;;;;15.60;8.68;;;4.50;99.90;;;;;;4956081;28;20031;-81
2022/04/29 01:07:35;;;;;;;14.35;8.15;;;4.40;99.90;;;;;;4967755;28;20792;-81
2022/04/29 01:10:01;;;;;;;13.73;8.77;;;4.30;99.90;;;;;;4945055;29;20050;-81
2022/04/29 01:12:30;;;;;;;13.13;8.68;;;4.30;99.90;;;;;;4955622;28;20031;-81
2022/04/29 01:14:58;;;;;;;14.20;9.32;;;4.30;99.90;;;;;;4967386;28;20486;-81
2022/04/29 01:17:25;;;;;;;12.88;8.40;;;4.30;99.90;;;;;;4970260;28;20466;-83
2022/04/29 01:19:51;;;;;;;12.55;8.70;;;4.30;99.90;;;;;;4969703;28;20116;-83
2022/04/29 01:22:16;;;;;;;14.13;9.43;;;4.30;99.90;;;;;;4948276;28;20035;-83
2022/04/29 01:24:42;;;;;;;13.32;8.77;;;4.20;99.90;;;;;;4969552;28;20506;-83
2022/04/29 01:27:10;;;;;;;15.10;9.65;;;4.20;99.90;;;;;;4968332;28;20027;-84
2022/04/29 01:29:38;;;;;;;12.50;8.15;;;4.10;99.90;;;;;;4951193;28;20458;-83
2022/04/29 01:32:05;;;;;;;13.18;8.95;;;4.00;99.90;;;;;;4964754;28;20575;-83
2022/04/29 01:34:30;;;;;;;12.70;9.23;;;3.90;99.90;;;;;;4962134;28;20605;-83
2022/04/29 01:36:56;;;;;;;17.83;8.93;;;3.90;99.90;;;;;;4952250;28;20057;-83
2022/04/29 01:39:21;;;;;;;14.18;10.13;;;3.90;99.90;;;;;;4984326;28;20023;-83
2022/04/29 01:41:47;;;;;;;12.85;9.15;;;4.00;99.90;;;;;;4969568;28;20031;-83
2022/04/29 01:44:13;;;;;;;16.27;9.02;;;4.00;99.90;;;;;;4948833;29;20082;-83
2022/04/29 01:46:38;;;;;;;15.43;9.95;;;4.10;99.90;;;;;;4966796;28;20074;-83
2022/04/29 01:49:07;;;;;;;17.23;9.73;;;3.90;99.90;;;;;;4969161;28;20034;-84
2022/04/29 01:51:32;;;;;;;13.70;8.93;;;3.90;99.90;;;;;;4932927;29;20214;-81
2022/04/29 01:53:58;;;;;;;12.57;10.05;;;4.00;99.90;;;;;;4961810;28;20038;-81
2022/04/29 01:56:32;;;;;;;12.00;8.07;;;4.00;99.90;;;;;;4965550;28;20429;-81
2022/04/29 01:59:00;;;;;;;13.48;9.07;;;3.90;99.90;;;;;;4973519;28;20031;-81
2022/04/29 02:01:27;;;;;;;15.38;9.52;;;3.80;99.90;;;;;;4968665;28;20081;-80
2022/04/29 02:03:54;;;;;;;14.52;9.80;;;3.80;99.90;;;;;;4951141;28;20027;-83
2022/04/29 02:06:20;;;;;;;18.85;9.85;;;3.80;99.90;;;;;;4984316;28;20023;-83
2022/04/29 02:08:45;;;;;;;14.52;10.43;;;3.70;99.90;;;;;;4973606;28;20034;-84
2022/04/29 02:11:11;;;;;;;14.88;10.50;;;3.60;99.90;;;;;;4952806;28;20035;-82
2022/04/29 02:13:38;;;;;;;18.58;11.40;;;3.60;99.90;;;;;;4956741;28;20146;-82
2022/04/29 02:16:04;;;;;;;18.63;11.57;;;3.70;99.90;;;;;;4968128;28;20117;-81
2022/04/29 02:18:30;;;;;;;19.05;12.65;;;3.80;99.90;;;;;;4943911;28;20459;-82
2022/04/29 02:20:56;;;;;;;16.25;10.68;;;3.80;99.90;;;;;;4991189;28;20118;-82
2022/04/29 02:23:22;;;;;;;17.75;11.45;;;3.80;99.90;;;;;;4967188;28;20023;-82
2022/04/29 02:25:47;;;;;;;16.15;11.55;;;3.70;99.90;;;;;;4947337;28;20047;-82
2022/04/29 02:28:13;;;;;;;15.50;10.40;;;3.80;99.90;;;;;;4970767;28;20269;-82
2022/04/29 02:30:40;;;;;;;18.58;10.63;;;3.60;99.90;;;;;;4987233;28;20246;-84
2022/04/29 02:33:07;;;;;;;16.35;9.85;;;3.70;99.90;;;;;;4972868;28;20029;-84
2022/04/29 02:35:32;;;;;;;16.25;11.43;;;3.70;99.90;;;;;;4972787;28;20035;-83
2022/04/29 02:37:58;;;;;;;14.80;8.98;;;3.70;99.90;;;;;;4972417;28;20026;-84
2022/04/29 02:40:24;;;;;;;16.88;10.98;;;3.60;99.90;;;;;;4972214;28;20023;-84
2022/04/29 02:42:50;;;;;;;13.98;9.52;;;3.70;99.90;;;;;;4972786;28;20027;-84
2022/04/29 02:45:16;;;;;;;16.20;10.25;;;3.70;99.90;;;;;;4971157;28;20502;-83
2022/04/29 02:47:43;;;;;;;15.48;10.38;;;3.60;99.90;;;;;;4970578;28;20110;-84
2022/04/29 02:50:09;;;;;;;18.98;11.63;;;3.50;99.90;;;;;;4980627;28;20031;-84
2022/04/29 02:52:35;;;;;;;17.15;11.18;;;3.50;99.90;;;;;;4965380;28;20038;-84
2022/04/29 02:55:00;;;;;;;17.08;12.15;;;3.50;99.90;;;;;;4985856;28;20039;-83
2022/04/29 02:57:27;;;;;;;18.35;12.20;;;3.50;99.90;;;;;;4970447;28;20049;-84
2022/04/29 02:59:54;;;;;;;15.88;11.88;;;3.60;99.90;;;;;;4972557;28;20042;-84
2022/04/29 03:02:20;;;;;;;19.65;11.60;;;3.50;99.90;;;;;;4984808;28;20023;-82
2022/04/29 03:04:45;;;;;;;19.30;11.73;;;3.40;99.90;;;;;;4956938;28;20088;-82
2022/04/29 03:07:11;;;;;;;17.13;11.35;;;3.40;99.90;;;;;;4992206;28;20101;-82
2022/04/29 03:09:36;;;;;;;19.63;14.05;;;3.50;99.90;;;;;;4967057;28;20380;-84
2022/04/29 03:12:02;;;;;;;20.85;13.07;;;3.30;99.90;;;;;;4991966;28;20543;-84
2022/04/29 03:14:28;;;;;;;18.50;11.90;;;3.30;99.90;;;;;;4997020;28;20065;-84
2022/04/29 03:16:54;;;;;;;17.85;12.02;;;3.20;99.90;;;;;;4980058;28;20044;-83
2022/04/29 03:19:20;;;;;;;16.33;10.93;;;3.20;99.90;;;;;;4985667;28;20030;-82
2022/04/29 03:21:46;;;;;;;19.05;11.57;;;3.30;99.90;;;;;;4975630;28;20038;-81
2022/04/29 03:24:12;;;;;;;18.23;11.93;;;3.30;99.90;;;;;;4991640;28;20105;-84
2022/04/29 03:26:38;;;;;;;18.30;11.55;;;3.20;99.90;;;;;;4978009;28;20153;-84
2022/04/29 03:29:03;;;;;;;20.45;11.27;;;3.30;99.90;;;;;;4990152;28;20030;-84
2022/04/29 03:31:29;;;;;;;14.98;11.57;;;3.30;99.90;;;;;;4991105;28;20294;-84
2022/04/29 03:33:55;;;;;;;19.05;11.23;;;3.30;99.90;;;;;;4981567;28;20233;-84
2022/04/29 03:36:20;;;;;;;18.23;12.18;;;3.30;99.90;;;;;;4982546;28;20027;-84
2022/04/29 03:38:47;;;;;;;16.70;11.82;;;3.40;99.90;;;;;;4992050;28;20117;-84
2022/04/29 03:41:12;;;;;;;26.15;14.07;;;3.30;99.90;;;;;;4990908;28;20122;-84
2022/04/29 03:43:38;;;;;;;19.30;11.35;;;3.30;99.90;;;;;;4991231;28;20731;-81
2022/04/29 03:46:05;;;;;;;22.75;12.90;;;3.20;99.90;;;;;;4991116;28;20060;-82
2022/04/29 03:49:35;;;;;;;20.25;13.30;;;3.20;99.90;;;;;;4972800;28;20033;-81
2022/04/29 03:51:17;;;;;;;19.75;12.52;;;3.20;99.90;;;;;;4990835;28;20057;-84
2022/04/29 03:53:42;;;;;;;19.80;13.23;;;3.10;99.90;;;;;;4991274;28;20508;-83
2022/04/29 03:56:08;;;;;;;23.25;14.65;;;3.10;99.90;;;;;;4989161;28;20486;-84
2022/04/29 03:58:34;;;;;;;21.15;13.45;;;3.10;99.90;;;;;;4967986;28;20478;-84
2022/04/29 04:00:59;;;;;;;21.23;14.15;;;3.20;99.90;;;;;;4958293;28;20030;-84
2022/04/29 04:03:25;;;;;;;22.55;14.45;;;3.30;99.90;;;;;;4987940;28;20478;-84
2022/04/29 04:08:35;;;;;;;23.85;14.98;;;3.20;99.90;;;;;;4984380;28;20138;-82
2022/04/29 04:11:01;;;;;;;20.02;14.63;;;3.20;99.90;;;;;;5001691;28;20383;-84
2022/04/29 04:13:27;;;;;;;19.77;12.70;;;3.30;99.90;;;;;;4999030;28;20031;-82
2022/04/29 04:15:52;;;;;;;21.55;15.27;;;3.30;99.90;;;;;;4985559;28;20038;-84
2022/04/29 04:18:18;;;;;;;22.58;14.63;;;3.30;99.90;;;;;;5005329;28;20035;-85
2022/04/29 04:20:44;;;;;;;22.73;14.82;;;3.30;99.90;;;;;;4990074;28;20019;-82
2022/04/29 04:23:09;;;;;;;29.17;14.65;;;3.30;99.90;;;;;;4970913;28;20482;-84
2022/04/29 04:25:35;;;;;;;19.58;14.15;;;3.40;99.90;;;;;;4989819;28;20045;-84
2022/04/29 04:28:01;;;;;;;20.23;14.25;;;3.70;99.90;;;;;;5001131;28;20034;-82
2022/04/29 04:30:29;;;;;;;22.10;14.57;;;3.70;99.90;;;;;;4988222;28;20463;-82
2022/04/29 04:32:55;;;;;;;21.20;13.05;;;3.70;99.90;;;;;;4989581;28;20034;-81
2022/04/29 04:35:21;;;;;;;21.35;12.65;;;3.80;99.90;;;;;;4993690;28;20034;-82
2022/04/29 04:37:47;;;;;;;19.98;14.25;;;3.90;99.90;;;;;;4999673;28;20034;-82
2022/04/29 04:40:13;;;;;;;19.50;13.45;;;4.00;99.90;;;;;;4987066;28;20027;-84
2022/04/29 04:42:45;;;;;;;25.90;14.40;;;4.00;99.90;;;;;;5003294;28;20096;-84
2022/04/29 04:45:11;;;;;;;20.50;13.50;;;4.20;99.90;;;;;;4989751;28;20152;-84
2022/04/29 04:47:37;;;;;;;20.90;14.00;;;4.20;99.90;;;;;;4989556;28;20037;-84
2022/04/29 04:50:04;;;;;;;21.40;13.25;;;4.40;99.90;;;;;;4990108;28;20030;-84
2022/04/29 04:52:29;;;;;;;20.40;12.90;;;4.40;99.90;;;;;;4973910;28;20034;-84
2022/04/29 04:54:55;;;;;;;19.52;12.52;;;4.50;99.90;;;;;;4970389;28;20081;-84
2022/04/29 04:57:21;;;;;;;18.63;12.10;;;4.60;99.90;;;;;;5001308;28;20022;-84
2022/04/29 04:59:46;;;;;;;20.98;12.68;;;4.60;99.90;;;;;;4971615;28;20034;-84
2022/04/29 05:02:12;;;;;;;18.05;12.65;;;4.60;99.90;;;;;;4987506;28;20038;-83
2022/04/29 05:04:37;;;;;;;15.90;11.35;;;4.80;99.90;;;;;;4990021;28;20038;-84
2022/04/29 05:07:03;;;;;;;17.80;12.48;;;4.90;99.90;;;;;;5004750;28;20314;-81
2022/04/29 05:09:29;;;;;;;20.42;12.63;;;5.00;99.90;;;;;;4989174;28;20042;-81
2022/04/29 05:11:55;;;;;;;19.50;12.13;;;5.20;99.90;;;;;;5004128;28;20058;-81
2022/04/29 05:14:21;;;;;;;19.38;12.35;;;5.30;99.90;;;;;;5003410;28;20040;-81
2022/04/29 05:16:46;;;;;;;18.30;11.27;;;5.30;99.90;;;;;;4989734;28;20478;-81
2022/04/29 05:19:12;;;;;;;21.17;12.95;;;5.40;99.90;;;;;;4987011;28;20421;-81
2022/04/29 05:21:38;;;;;;;19.17;12.18;;;5.40;99.90;;;;;;4986372;28;20023;-81
2022/04/29 05:24:03;;;;;;;16.15;11.43;;;5.30;99.90;;;;;;5004429;28;20038;-81
2022/04/29 05:26:29;;;;;;;17.35;12.13;;;5.40;99.90;;;;;;4986413;28;20069;-82
2022/04/29 05:28:55;;;;;;;15.82;11.55;;;5.60;99.90;;;;;;4992587;28;20076;-83
2022/04/29 05:31:21;;;;;;;18.52;13.02;;;5.60;99.90;;;;;;5003476;28;20034;-83
2022/04/29 05:33:47;;;;;;;16.58;10.73;;;5.60;99.90;;;;;;4987259;28;20034;-83
2022/04/29 05:36:13;;;;;;;17.88;11.25;;;5.70;99.90;;;;;;4984847;28;20775;-83
2022/04/29 05:44:08;;;;;;;18.63;13.25;;;6.10;99.90;;;;;;4986925;28;20065;-83
2022/04/29 05:46:36;;;;;;;17.42;12.38;;;6.20;99.90;;;;;;4989439;28;20030;-83
2022/04/29 05:49:03;;;;;;;20.20;12.85;;;6.30;99.90;;;;;;5002848;28;20038;-82
2022/04/29 05:51:29;;;;;;;19.02;13.27;;;6.20;99.90;;;;;;4992295;28;20070;-82
2022/04/29 05:53:54;;;;;;;17.55;13.02;;;6.20;99.90;;;;;;4989613;28;20438;-83
2022/04/29 05:56:20;;;;;;;20.88;12.95;;;6.40;99.90;;;;;;4991076;28;20038;-83
2022/04/29 05:58:45;;;;;;;21.45;14.27;;;6.40;99.90;;;;;;4975851;28;20030;-82
2022/04/29 06:01:11;;;;;;;22.80;13.45;;;6.50;99.90;;;;;;4993072;28;20035;-82
2022/04/29 06:03:37;;;;;;;23.92;14.55;;;6.50;99.90;;;;;;4993933;28;20029;-82
2022/04/29 06:06:03;;;;;;;19.98;13.40;;;6.70;99.90;;;;;;4989561;28;20110;-82
2022/04/29 06:08:29;;;;;;;18.15;12.75;;;6.80;99.90;;;;;;4992334;28;20031;-83
2022/04/29 06:10:54;;;;;;;16.83;12.63;;;6.80;99.90;;;;;;4992724;28;20052;-82
2022/04/29 06:13:20;;;;;;;19.23;13.35;;;6.80;99.90;;;;;;5007864;28;20387;-82
2022/04/29 06:15:45;;;;;;;19.80;14.32;;;7.00;99.90;;;;;;5008053;28;20034;-83
2022/04/29 06:18:14;;;;;;;20.27;13.57;;;7.00;99.90;;;;;;5007516;28;20087;-83
2022/04/29 06:20:39;;;;;;;21.33;13.85;;;7.20;99.90;;;;;;4975781;28;20088;-83
2022/04/29 06:23:05;;;;;;;25.30;12.45;;;7.10;99.90;;;;;;4993375;28;20474;-82
2022/04/29 06:25:31;;;;;;;18.35;12.77;;;7.20;99.90;;;;;;5006788;28;20033;-83
2022/04/29 06:27:57;;;;;;;24.15;13.90;;;7.30;99.90;;;;;;5014773;28;20054;-81
2022/04/29 06:30:23;;;;;;;22.05;14.05;;;7.30;99.90;;;;;;4994660;28;20083;-82
2022/04/29 06:32:53;;;;;;;17.20;12.32;;;7.10;99.90;;;;;;4986129;28;20022;-82
2022/04/29 06:35:19;;;;;;;19.80;14.30;;;7.20;99.90;;;;;;4990009;28;20030;-82
2022/04/29 06:37:44;;;;;;;17.83;12.90;;;7.30;99.90;;;;;;4995543;28;20099;-82
2022/04/29 06:40:11;;;;;;;18.67;13.38;;;7.50;99.90;;;;;;4999999;28;20050;-82
2022/04/29 06:42:50;;;;;;;22.92;13.27;;;7.50;99.90;;;;;;4990488;28;20470;-82
2022/04/29 06:45:16;;;;;;;19.45;13.55;;;7.60;99.90;;;;;;4987607;28;20653;-83
2022/04/29 06:47:41;;;;;;;20.35;12.60;;;7.60;99.90;;;;;;4990606;28;20140;-83
2022/04/29 06:50:10;;;;;;;18.00;13.38;;;7.80;99.90;;;;;;4991757;28;20108;-83
2022/04/29 06:52:36;;;;;;;17.25;12.07;;;7.90;99.90;;;;;;4991349;28;20034;-83
2022/04/29 06:55:01;;;;;;;20.08;14.35;;;8.00;99.90;;;;;;4985472;28;20056;-83
2022/04/29 06:57:27;;;;;;;20.25;14.27;;;7.90;99.90;;;;;;4985646;28;20077;-83
2022/04/29 06:59:53;;;;;;;19.25;13.45;;;7.90;99.90;;;;;;4989675;28;20042;-83
2022/04/29 07:02:18;;;;;;;16.25;12.75;;;8.10;99.90;;;;;;4997600;28;20082;-83
2022/04/29 07:04:44;;;;;;;24.27;14.68;;;8.10;99.90;;;;;;4989803;28;20775;-84
2022/04/29 07:07:14;;;;;;;20.30;14.02;;;8.20;99.90;;;;;;4974106;28;20046;-82
2022/04/29 07:09:40;;;;;;;20.50;13.77;;;8.30;99.90;;;;;;4991822;28;20257;-82
2022/04/29 07:12:07;;;;;;;19.42;12.68;;;8.50;99.90;;;;;;5006585;28;20042;-82
2022/04/29 07:14:34;;;;;;;19.30;13.05;;;8.70;99.90;;;;;;4978178;28;20505;-82
2022/04/29 07:16:59;;;;;;;20.88;14.25;;;8.90;99.90;;;;;;4980366;28;20522;-82
2022/04/29 07:19:25;;;;;;;20.15;14.07;;;9.10;99.90;;;;;;4991981;28;20158;-82
2022/04/29 07:21:50;;;;;;;17.38;12.93;;;9.20;99.90;;;;;;5006702;28;20077;-82
2022/04/29 07:24:17;;;;;;;17.95;12.02;;;9.40;99.90;;;;;;4990068;28;20038;-83
2022/04/29 07:26:43;;;;;;;19.05;13.23;;;9.60;99.90;;;;;;4996159;28;20027;-83
2022/04/29 07:29:09;;;;;;;21.65;13.13;;;9.60;99.90;;;;;;4994314;28;20037;-83
2022/04/29 07:31:34;;;;;;;19.92;14.20;;;9.60;99.90;;;;;;4989303;28;20157;-84
2022/04/29 07:34:00;;;;;;;18.33;13.30;;;9.70;99.90;;;;;;4971113;28;20073;-83
2022/04/29 07:41:54;;;;;;;19.90;12.43;;;10.60;99.90;;;;;;4976999;28;20076;-83
2022/04/29 07:44:20;;;;;;;19.90;11.75;;;10.80;99.90;;;;;;4988261;28;20235;-83
2022/04/29 07:46:47;;;;;;;20.48;13.32;;;10.90;99.60;;;;;;4983883;28;20037;-83
2022/04/29 07:49:14;;;;;;;22.42;14.38;;;11.00;99.90;;;;;;5006782;28;20760;-83
2022/04/29 07:51:40;;;;;;;16.65;11.85;;;10.90;99.90;;;;;;4990643;28;20089;-83
2022/04/29 07:54:07;;;;;;;16.50;11.68;;;11.20;99.20;;;;;;4993963;28;20030;-84
2022/04/29 07:56:33;;;;;;;18.48;12.15;;;11.50;99.90;;;;;;4989104;28;20032;-83
2022/04/29 07:58:58;;;;;;;15.68;11.38;;;11.60;98.40;;;;;;4990615;28;20042;-83
2022/04/29 08:01:26;;;;;;;16.92;12.02;;;11.80;99.00;;;;;;4972373;28;20034;-83
2022/04/29 08:03:53;;;;;;;19.75;12.68;;;12.10;98.50;;;;;;4990948;28;20027;-83
2022/04/29 08:06:19;;;;;;;16.85;12.15;;;12.30;96.90;;;;;;4989497;28;20034;-84
2022/04/29 08:08:45;;;;;;;15.90;12.38;;;12.50;95.90;;;;;;4969414;28;20031;-83
2022/04/29 08:11:11;;;;;;;14.45;10.38;;;12.80;96.10;;;;;;4980495;28;20034;-84
2022/04/29 08:13:37;;;;;;;17.92;10.85;;;12.80;91.80;;;;;;4989479;28;20034;-83
2022/04/29 08:16:04;;;;;;;11.05;7.72;;;13.00;85.90;;;;;;4973475;28;20386;-83
2022/04/29 08:18:29;;;;;;;12.07;9.13;;;13.20;69.40;;;;;;4996399;28;20031;-84
2022/04/29 08:20:57;;;;;;;12.60;6.10;;;13.40;69.90;;;;;;5007584;28;20209;-84
2022/04/29 08:23:22;;;;;;;9.25;6.13;;;13.70;60.30;;;;;;4990091;28;20102;-83
2022/04/29 08:25:48;;;;;;;6.05;4.68;;;14.00;55.20;;;;;;5006262;28;20133;-84
2022/04/29 08:28:14;;;;;;;6.90;5.35;;;14.40;54.00;;;;;;5005520;28;20034;-83
2022/04/29 08:30:39;;;;;;;12.00;6.45;;;14.50;52.80;;;;;;5001682;28;20434;-84
2022/04/29 08:33:13;;;;;;;7.38;5.00;;;14.60;50.60;;;;;;4990297;28;20459;-83
2022/04/29 08:35:40;;;;;;;8.27;5.85;;;14.90;55.90;;;;;;4999685;28;20058;-84
2022/04/29 08:38:10;;;;;;;8.18;6.15;;;15.00;52.00;;;;;;4989324;28;20354;-84
2022/04/29 08:40:41;;;;;;;8.38;6.00;;;14.70;49.70;;;;;;4986592;28;20152;-83
2022/04/29 08:43:08;;;;;;;7.40;5.40;;;14.70;50.50;;;;;;4996580;28;20030;-83
2022/04/29 08:45:36;;;;;;;10.35;5.95;;;14.90;51.20;;;;;;4989380;28;20069;-82
2022/04/29 08:48:02;;;;;;;10.77;5.10;;;15.00;53.80;;;;;;4989288;28;20494;-82
2022/04/29 08:50:30;;;;;;;5.90;5.07;;;14.80;47.40;;;;;;4988863;28;20031;-84
2022/04/29 08:52:57;;;;;;;5.55;4.78;;;14.90;48.70;;;;;;4989641;28;20027;-83
2022/04/29 09:01:09;;;;;;;9.40;5.38;;;15.40;48.10;;;;;;4988872;28;20410;-82
2022/04/29 09:03:36;;;;;;;6.95;5.07;;;15.70;44.50;;;;;;4983577;28;20096;-82
2022/04/29 09:06:06;;;;;;;6.75;4.78;;;15.70;44.70;;;;;;4989762;28;20185;-82
2022/04/29 09:08:39;;;;;;;8.68;5.57;;;15.80;42.90;;;;;;5003761;28;20431;-82
2022/04/29 09:11:05;;;;;;;7.43;5.25;;;16.10;44.10;;;;;;5003773;28;21067;-82
2022/04/29 09:13:35;;;;;;;7.90;5.57;;;16.40;46.40;;;;;;4986994;28;20034;-82
2022/04/29 09:16:04;;;;;;;8.60;5.78;;;16.60;44.50;;;;;;4989492;28;20121;-82
2022/04/29 09:18:50;;;;;;;8.30;5.75;;;17.00;45.70;;;;;;4982577;28;20138;-82
2022/04/29 09:21:24;;;;;;;8.57;6.65;;;17.40;41.10;;;;;;4989326;28;20030;-82
2022/04/29 09:23:59;;;;;;;8.25;6.20;;;16.80;42.10;;;;;;4987385;28;20030;-82
2022/04/29 09:26:43;;;;;;;8.10;6.43;;;16.90;44.10;;;;;;4989043;28;20623;-82
2022/04/29 09:29:17;;;;;;;7.55;6.75;;;17.40;41.50;;;;;;5003879;28;20046;-82
2022/04/29 09:31:55;;;;;;;10.63;7.38;;;17.70;41.30;;;;;;5001373;28;20038;-83
2022/04/29 09:34:22;;;;;;;10.00;6.40;;;18.00;38.30;;;;;;4985002;28;20034;-84
2022/04/29 09:36:48;;;;;;;8.40;6.85;;;18.00;39.20;;;;;;4989233;28;20126;-84
2022/04/29 09:39:32;;;;;;;8.98;6.32;;;18.40;41.20;;;;;;4980977;28;20023;-84
2022/04/29 09:42:04;;;;;;;8.32;5.60;;;18.20;36.00;;;;;;4974683;28;20039;-84
2022/04/29 09:44:32;;;;;;;7.18;5.72;;;18.00;38.40;;;;;;4990042;28;20066;-84
2022/04/29 09:47:15;;;;;;;7.00;5.68;;;18.00;39.10;;;;;;4988699;28;20235;-83
2022/04/29 09:49:52;;;;;;;6.85;5.65;;;17.70;37.90;;;;;;4988844;28;20089;-84
2022/04/29 09:52:19;;;;;;;7.97;5.43;;;17.30;37.20;;;;;;4989200;28;20027;-83
2022/04/29 09:54:45;;;;;;;8.35;5.40;;;17.20;39.20;;;;;;4987880;28;20039;-83
2022/04/29 09:57:12;;;;;;;8.73;5.68;;;17.20;38.40;;;;;;4987843;28;20026;-82
2022/04/29 09:59:42;;;;;;;9.57;5.53;;;17.60;38.50;;;;;;4977908;28;20031;-83
2022/04/29 10:02:15;;;;;;;7.88;5.20;;;18.00;37.40;;;;;;4984733;28;20027;-83
2022/04/29 10:04:46;;;;;;;7.47;6.15;;;18.00;37.40;;;;;;4987487;28;20026;-83
2022/04/29 10:07:14;;;;;;;7.80;5.53;;;18.00;38.10;;;;;;4982162;28;20034;-82
2022/04/29 10:09:48;;;;;;;9.00;5.95;;;18.10;37.80;;;;;;4988131;28;20092;-84
2022/04/29 10:12:16;;;;;;;9.20;6.40;;;18.10;36.50;;;;;;4980799;28;20101;-84
2022/04/29 10:14:46;;;;;;;8.55;6.15;;;17.90;37.20;;;;;;4986670;28;20038;-84
2022/04/29 10:23:16;;;;;;;10.20;7.05;;;17.70;39.40;;;;;;4998081;28;20058;-82
2022/04/29 10:25:47;;;;;;;9.45;6.53;;;17.90;42.90;;;;;;4986657;28;20039;-82
2022/04/29 10:28:22;;;;;;;9.43;7.13;;;18.20;38.90;;;;;;4982862;28;20033;-82
2022/04/29 10:31:00;;;;;;;11.13;7.25;;;18.20;41.30;;;;;;4988509;28;20479;-82
2022/04/29 10:33:26;;;;;;;12.52;7.28;;;18.30;38.50;;;;;;4990828;28;20054;-82
2022/04/29 10:35:58;;;;;;;10.23;7.18;;;17.90;39.40;;;;;;4989333;28;20069;-82
2022/04/29 10:38:34;;;;;;;8.90;6.25;;;18.00;41.90;;;;;;4988080;28;20038;-82
2022/04/29 10:41:10;;;;;;;8.48;6.38;;;18.70;41.00;;;;;;5006966;28;20472;-84
2022/04/29 10:43:38;;;;;;;10.63;7.25;;;19.10;39.20;;;;;;4995181;28;20475;-84
2022/04/29 10:46:03;;;;;;;8.70;6.70;;;19.20;35.00;;;;;;4987970;28;20049;-84
2022/04/29 10:48:34;;;;;;;10.05;6.75;;;19.30;37.50;;;;;;5007315;28;20470;-84
2022/04/29 10:51:10;;;;;;;10.05;7.35;;;19.80;39.70;;;;;;4990276;28;20034;-82
2022/04/29 10:53:41;;;;;;;7.90;6.53;;;20.40;35.30;;;;;;4998590;28;20426;-82
2022/04/29 10:56:30;;;;;;;10.20;7.32;;;20.60;34.80;;;;;;4992188;28;20117;-84
2022/04/29 10:59:07;;;;;;;8.23;6.90;;;19.90;32.00;;;;;;4991817;28;20049;-84
2022/04/29 11:01:34;;;;;;;10.50;7.57;;;20.40;32.80;;;;;;4978322;28;20117;-84
2022/04/29 11:04:04;;;;;;;8.70;7.15;;;21.10;33.20;;;;;;4972713;28;20256;-84
2022/04/29 11:06:37;;;;;;;8.48;6.38;;;21.30;30.90;;;;;;4980204;28;20037;-84
2022/04/29 11:09:26;;;;;;;9.55;5.85;;;21.60;31.10;;;;;;4983291;28;20572;-84
2022/04/29 11:11:54;;;;;;;9.40;6.45;;;21.40;28.60;;;;;;4989363;28;20045;-84
2022/04/29 11:14:20;;;;;;;8.18;5.65;;;21.30;30.50;;;;;;4982816;28;20054;-85
2022/04/29 11:16:56;;;;;;;9.70;7.18;;;21.70;29.00;;;;;;4984823;28;20473;-84
2022/04/29 11:19:28;;;;;;;9.18;7.57;;;22.10;32.10;;;;;;4991596;28;20151;-84
2022/04/29 11:24:50;;;;;;;12.45;8.50;;;22.10;29.80;;;;;;5004363;28;20041;-84
2022/04/29 11:27:30;;;;;;;12.25;9.23;;;22.40;29.90;;;;;;4993522;28;20076;-84
2022/04/29 11:30:01;;;;;;;10.23;7.88;;;23.00;28.80;;;;;;4992540;28;20031;-84
2022/04/29 11:32:27;;;;;;;12.10;8.23;;;23.50;29.30;;;;;;4999587;28;20046;-84
2022/04/29 11:35:06;;;;;;;9.68;7.57;;;23.80;27.00;;;;;;4993288;28;20334;-85
2022/04/29 11:37:34;;;;;;;12.60;9.20;;;23.70;29.30;;;;;;5005049;28;20109;-85
2022/04/29 11:40:04;;;;;;;11.40;8.57;;;23.50;28.60;;;;;;4991185;28;20025;-85
2022/04/29 11:42:31;;;;;;;13.32;9.18;;;22.90;27.60;;;;;;5005358;28;20037;-85
2022/04/29 11:45:10;;;;;;;10.77;8.30;;;22.50;28.50;;;;;;4991325;28;20038;-87
2022/04/29 11:47:36;;;;;;;13.37;8.67;;;22.90;27.90;;;;;;4989793;28;20661;-85
2022/04/29 11:50:04;;;;;;;15.82;9.75;;;22.10;28.10;;;;;;4990272;28;20030;-86
2022/04/29 11:52:31;;;;;;;13.40;8.73;;;21.20;30.70;;;;;;5006354;28;20129;-86
2022/04/29 11:54:57;;;;;;;15.45;10.23;;;20.70;31.10;;;;;;4995033;28;20061;-86
2022/04/29 11:57:25;;;;;;;11.02;8.88;;;21.20;31.40;;;;;;4998520;28;20066;-86
2022/04/29 11:59:51;;;;;;;11.13;7.97;;;21.70;31.10;;;;;;4997025;28;20022;-87
2022/04/29 12:02:19;;;;;;;12.77;8.73;;;22.40;28.80;;;;;;4985732;28;20031;-86
2022/04/29 12:04:58;;;;;;;14.63;9.48;;;22.30;28.50;;;;;;4988076;28;20030;-87
2022/04/29 12:07:26;;;;;;;13.27;11.15;;;22.90;29.50;;;;;;5003260;28;20031;-86
2022/04/29 12:09:53;;;;;;;13.38;9.90;;;23.00;28.60;;;;;;4988022;28;20117;-86
2022/04/29 12:12:27;;;;;;;13.30;10.85;;;23.60;28.50;;;;;;4990103;28;20026;-86
2022/04/29 12:14:55;;;;;;;13.85;9.40;;;23.20;27.80;;;;;;4990920;28;20113;-86
2022/04/29 12:17:40;;;;;;;14.43;9.80;;;23.60;27.60;;;;;;5007426;28;20403;-85
2022/04/29 12:20:10;;;;;;;13.13;10.02;;;23.50;28.70;;;;;;4990483;28;20126;-85
2022/04/29 12:22:38;;;;;;;14.77;9.85;;;22.70;28.30;;;;;;4989921;28;20026;-85
2022/04/29 12:25:39;;;;;;;12.35;9.40;;;23.20;28.70;;;;;;4989717;28;20165;-84
2022/04/29 12:28:26;;;;;;;15.07;10.05;;;23.60;30.10;;;;;;4985418;28;20035;-85
2022/04/29 12:37:10;;;;;;;13.73;9.77;;;23.40;27.90;;;;;;4998682;28;20040;-87
2022/04/29 12:39:43;;;;;;;14.15;10.07;;;24.40;27.30;;;;;;4975853;28;20080;-86
2022/04/29 12:42:08;;;;;;;12.23;9.70;;;24.10;29.00;;;;;;4984397;28;20501;-85
2022/04/29 12:45:08;;;;;;;15.05;11.38;;;23.60;27.70;;;;;;4984795;28;20054;-86
2022/04/29 12:47:38;;;;;;;14.25;10.05;;;22.90;28.70;;;;;;4954928;28;20133;-85
2022/04/29 12:50:26;;;;;;;14.48;10.75;;;23.00;29.80;;;;;;4973415;28;20056;-85
2022/04/29 12:52:56;;;;;;;16.67;10.77;;;22.70;29.40;;;;;;4982781;28;20019;-87
2022/04/29 12:55:22;;;;;;;;;;;22.40;29.20;;;;;;4981347;28;20030;-87
2022/04/29 12:57:48;;;;;;;13.35;10.00;;;22.80;31.60;;;;;;5005030;28;19929;-86
2022/04/29 13:00:26;;;;;;;15.15;9.60;;;23.30;28.40;;;;;;4989219;28;20466;-88
2022/04/29 13:03:07;;;;;;;11.50;8.57;;;23.50;26.60;;;;;;4993069;28;20096;-87
2022/04/29 13:05:34;;;;;;;11.02;8.68;;;23.90;27.00;;;;;;4972362;28;20031;-88
2022/04/29 13:08:01;;;;;;;15.15;8.57;;;23.70;27.00;;;;;;4991194;28;20733;-87
2022/04/29 13:10:27;;;;;;;14.70;9.45;;;23.40;26.60;;;;;;4989609;28;20111;-86
2022/04/29 13:12:54;;;;;;;15.05;8.90;;;23.10;25.90;;;;;;5004948;28;20042;-87
2022/04/29 13:15:23;;;;;;;11.85;8.60;;;23.30;26.80;;;;;;4989127;28;20018;-86
2022/04/29 13:17:59;;;;;;;13.98;8.95;;;23.40;27.90;;;;;;4976368;28;20064;-87
2022/04/29 13:20:26;;;;;;;9.35;7.55;;;23.80;26.20;;;;;;4990517;28;20393;-86